MST,Max TemperatureF,Mean TemperatureF,Min TemperatureF,Max Dew PointF,MeanDew PointF,Min DewpointF,Max Humidity, Mean Humidity, Min Humidity, Max Sea Level PressureIn, Mean Sea Level PressureIn, Min Sea Level PressureIn, Max VisibilityMiles, Mean VisibilityMiles, Min VisibilityMiles, Max Wind SpeedMPH, Mean Wind SpeedMPH, Max Gust SpeedMPH,PrecipitationIn, CloudCover, Events, WindDirDegrees
2013-11-1,57,40,24,23,17,14,69,42,20,30.32,30.28,30.21,10,10,10,20,5,23,0.00,0,,50
2013-11-2,66,46,26,19,14,10,59,32,12,30.32,30.20,30.06,10,10,10,18,6,31,0.00,0,,192
2013-11-3,59,50,41,36,31,12,70,51,22,30.08,29.98,29.91,10,10,10,33,17,40,0.00,0,,199
2013-11-4,57,44,32,39,31,25,93,60,29,29.97,29.92,29.87,10,10,2,33,12,43,0.16,2,Rain-Thunderstorm,192
2013-11-5,42,34,23,36,26,14,100,74,45,30.31,30.14,29.96,10,10,1,14,6,22,0.14,4,Rain-Snow-Thunderstorm,334
2013-11-6,48,32,15,18,15,10,86,54,25,30.47,30.40,30.32,10,10,10,14,5,16,0.00,0,,35
2013-11-7,59,41,23,25,17,10,74,46,18,30.47,30.38,30.29,10,9,3,10,2,,0.00,0,,268
2013-11-8,60,43,26,27,23,14,69,42,20,30.29,30.23,30.16,10,9,4,16,8,21,0.00,0,,191
2013-11-9,64,48,33,28,24,18,70,44,18,30.31,30.26,30.22,10,10,10,12,6,,0.00,0,,195
2013-11-10,62,47,32,27,25,23,75,49,22,30.37,30.32,30.28,10,10,10,9,3,,0.00,0,,203
2013-11-11,62,45,28,27,23,19,80,47,22,30.42,30.36,30.31,10,10,8,15,3,18,0.00,0,,19
2013-11-12,60,43,26,27,21,18,69,45,22,30.52,30.45,30.41,10,10,4,9,2,,0.00,0,,328
2013-11-13,59,46,32,36,31,27,87,62,36,30.45,30.32,30.20,10,10,4,9,4,,0.00,0,Rain,184
2013-11-14,57,46,35,36,29,21,93,59,27,30.21,30.13,30.01,10,10,9,13,7,,0.00,0,,201
2013-11-15,55,48,41,41,34,28,93,64,41,30.01,29.86,29.75,10,9,2,38,16,52,0.18,2,Rain-Thunderstorm,197
2013-11-16,50,44,37,39,35,28,93,75,46,29.99,29.86,29.80,10,10,10,32,18,40,0.00,4,,205
2013-11-17,53,42,32,36,33,28,93,71,41,30.24,30.12,29.99,10,10,9,26,16,36,0.00,1,,194
2013-11-18,57,44,32,39,32,27,100,71,38,30.28,30.22,30.18,10,10,10,14,4,17,0.00,0,,190
2013-11-19,57,44,32,34,30,23,87,57,29,30.18,30.07,30.00,10,10,10,22,10,28,0.00,0,,198
2013-11-20,48,42,37,37,33,27,93,68,46,30.02,29.99,29.92,10,10,2,21,11,24,0.06,6,Rain,198
2013-11-21,50,44,39,39,37,32,100,81,50,30.07,30.04,30.00,10,8,3,17,9,21,0.21,7,Rain-Thunderstorm,178
2013-11-22,48,44,39,43,39,36,100,88,71,30.07,30.01,29.96,10,8,2,22,9,31,0.35,5,Rain,165
2013-11-23,46,39,32,36,32,30,100,86,57,30.13,30.08,30.04,10,8,1,21,6,28,0.07,6,Rain-Snow,186
2013-11-24,33,30,28,30,28,27,100,90,80,30.16,30.12,30.08,10,8,1,16,7,22,0.07,7,Rain-Snow,202
2013-11-25,35,30,24,28,27,23,93,88,70,30.33,30.22,30.12,10,10,10,13,4,16,0.00,6,,26
2013-11-26,41,32,23,28,25,19,100,81,57,30.41,30.35,30.32,10,10,10,13,5,,0.00,0,,52
2013-11-27,41,31,21,30,26,19,93,81,61,30.34,30.22,30.15,10,10,9,7,3,,0.00,0,,346
2013-11-28,26,25,24,23,21,19,93,85,80,30.17,30.16,30.15,10,10,10,8,5,,0.00,0,,178
2013-11-29,,,,,,,,,,,,,,,,,,,,,,
2013-11-30,,,,,,,,,,,,,,,,,,,,,,